sensor_id;sensor_type;location;lat;lon;timestamp;P1;durP1;ratioP1;P2;durP2;ratioP2
25687;SDS011;17407;51.120;3.702;2023-09-08T00:01:48;18.92;;;16.92;;
25687;SDS011;17407;51.120;3.702;2023-09-08T00:04:13;19.23;;;16.92;;
25687;SDS011;17407;51.120;3.702;2023-09-08T00:06:39;18.52;;;16.73;;
25687;SDS011;17407;51.120;3.702;2023-09-08T00:09:06;17.75;;;15.95;;
25687;SDS011;17407;51.120;3.702;2023-09-08T00:11:32;17.85;;;16.05;;
25687;SDS011;17407;51.120;3.702;2023-09-08T00:13:58;17.95;;;16.05;;
25687;SDS011;17407;51.120;3.702;2023-09-08T00:16:23;18.75;;;16.95;;
25687;SDS011;17407;51.120;3.702;2023-09-08T00:18:49;22.88;;;17.85;;
25687;SDS011;17407;51.120;3.702;2023-09-08T00:21:15;19.55;;;17.38;;
25687;SDS011;17407;51.120;3.702;2023-09-08T00:23:41;18.23;;;16.33;;
25687;SDS011;17407;51.120;3.702;2023-09-08T00:26:06;18.58;;;15.75;;
25687;SDS011;17407;51.120;3.702;2023-09-08T00:28:32;17.35;;;15.55;;
25687;SDS011;17407;51.120;3.702;2023-09-08T00:30:58;19.40;;;17.40;;
25687;SDS011;17407;51.120;3.702;2023-09-08T00:33:25;18.85;;;16.85;;
25687;SDS011;17407;51.120;3.702;2023-09-08T00:35:51;25.80;;;17.27;;
25687;SDS011;17407;51.120;3.702;2023-09-08T00:38:18;18.27;;;16.38;;
25687;SDS011;17407;51.120;3.702;2023-09-08T00:40:44;19.00;;;17.00;;
25687;SDS011;17407;51.120;3.702;2023-09-08T00:43:10;20.13;;;18.05;;
25687;SDS011;17407;51.120;3.702;2023-09-08T00:45:37;20.00;;;17.90;;
25687;SDS011;17407;51.120;3.702;2023-09-08T00:48:05;22.77;;;19.42;;
25687;SDS011;17407;51.120;3.702;2023-09-08T00:50:31;26.05;;;21.15;;
25687;SDS011;17407;51.120;3.702;2023-09-08T00:52:57;22.15;;;19.85;;
25687;SDS011;17407;51.120;3.702;2023-09-08T00:55:23;20.65;;;18.25;;
25687;SDS011;17407;51.120;3.702;2023-09-08T00:57:50;21.63;;;19.30;;
25687;SDS011;17407;51.120;3.702;2023-09-08T01:00:15;20.83;;;17.88;;
25687;SDS011;17407;51.120;3.702;2023-09-08T01:02:41;18.63;;;16.63;;
25687;SDS011;17407;51.120;3.702;2023-09-08T01:05:08;22.17;;;18.30;;
25687;SDS011;17407;51.120;3.702;2023-09-08T01:07:34;22.63;;;19.05;;
25687;SDS011;17407;51.120;3.702;2023-09-08T01:10:00;19.50;;;17.70;;
25687;SDS011;17407;51.120;3.702;2023-09-08T01:12:31;19.13;;;17.17;;
25687;SDS011;17407;51.120;3.702;2023-09-08T01:14:58;18.85;;;17.05;;
25687;SDS011;17407;51.120;3.702;2023-09-08T01:17:24;21.02;;;17.70;;
25687;SDS011;17407;51.120;3.702;2023-09-08T01:19:50;20.95;;;17.63;;
25687;SDS011;17407;51.120;3.702;2023-09-08T01:22:21;19.55;;;17.38;;
25687;SDS011;17407;51.120;3.702;2023-09-08T01:25:00;19.35;;;17.40;;
25687;SDS011;17407;51.120;3.702;2023-09-08T01:27:29;18.50;;;16.50;;
25687;SDS011;17407;51.120;3.702;2023-09-08T01:29:58;19.95;;;16.58;;
25687;SDS011;17407;51.120;3.702;2023-09-08T01:32:25;18.27;;;16.42;;
25687;SDS011;17407;51.120;3.702;2023-09-08T01:34:51;18.00;;;16.20;;
25687;SDS011;17407;51.120;3.702;2023-09-08T01:37:17;18.15;;;16.30;;
25687;SDS011;17407;51.120;3.702;2023-09-08T01:39:43;18.70;;;16.73;;
25687;SDS011;17407;51.120;3.702;2023-09-08T01:42:08;18.27;;;16.45;;
25687;SDS011;17407;51.120;3.702;2023-09-08T01:44:34;18.05;;;15.95;;
25687;SDS011;17407;51.120;3.702;2023-09-08T01:47:01;17.75;;;16.05;;
25687;SDS011;17407;51.120;3.702;2023-09-08T01:49:26;17.95;;;15.88;;
25687;SDS011;17407;51.120;3.702;2023-09-08T01:51:52;18.65;;;15.50;;
25687;SDS011;17407;51.120;3.702;2023-09-08T01:54:18;18.20;;;15.70;;
25687;SDS011;17407;51.120;3.702;2023-09-08T01:56:43;16.20;;;14.50;;
25687;SDS011;17407;51.120;3.702;2023-09-08T01:59:09;17.42;;;15.57;;
25687;SDS011;17407;51.120;3.702;2023-09-08T02:01:34;17.45;;;15.55;;
25687;SDS011;17407;51.120;3.702;2023-09-08T02:04:01;17.25;;;15.45;;
25687;SDS011;17407;51.120;3.702;2023-09-08T02:06:27;16.15;;;14.13;;
25687;SDS011;17407;51.120;3.702;2023-09-08T02:08:53;19.77;;;15.32;;
25687;SDS011;17407;51.120;3.702;2023-09-08T02:11:18;16.08;;;14.15;;
25687;SDS011;17407;51.120;3.702;2023-09-08T02:13:44;15.75;;;14.25;;
25687;SDS011;17407;51.120;3.702;2023-09-08T02:16:13;15.80;;;14.20;;
25687;SDS011;17407;51.120;3.702;2023-09-08T02:18:40;21.88;;;13.77;;
25687;SDS011;17407;51.120;3.702;2023-09-08T02:21:09;16.55;;;14.85;;
25687;SDS011;17407;51.120;3.702;2023-09-08T02:23:35;18.48;;;14.68;;
25687;SDS011;17407;51.120;3.702;2023-09-08T02:26:01;19.48;;;15.52;;
25687;SDS011;17407;51.120;3.702;2023-09-08T02:28:27;18.48;;;14.50;;
25687;SDS011;17407;51.120;3.702;2023-09-08T02:30:53;24.08;;;19.10;;
25687;SDS011;17407;51.120;3.702;2023-09-08T02:33:19;20.90;;;16.92;;
25687;SDS011;17407;51.120;3.702;2023-09-08T02:35:44;20.27;;;15.63;;
25687;SDS011;17407;51.120;3.702;2023-09-08T02:38:10;19.15;;;16.80;;
25687;SDS011;17407;51.120;3.702;2023-09-08T02:40:36;19.38;;;16.60;;
25687;SDS011;17407;51.120;3.702;2023-09-08T02:43:02;21.23;;;16.10;;
25687;SDS011;17407;51.120;3.702;2023-09-08T02:45:28;19.48;;;16.73;;
25687;SDS011;17407;51.120;3.702;2023-09-08T02:47:54;21.27;;;17.17;;
25687;SDS011;17407;51.120;3.702;2023-09-08T02:50:19;19.00;;;16.27;;
25687;SDS011;17407;51.120;3.702;2023-09-08T02:52:45;24.85;;;17.23;;
25687;SDS011;17407;51.120;3.702;2023-09-08T02:55:11;30.02;;;20.15;;
25687;SDS011;17407;51.120;3.702;2023-09-08T02:57:37;26.35;;;20.85;;
25687;SDS011;17407;51.120;3.702;2023-09-08T03:00:04;29.33;;;20.75;;
25687;SDS011;17407;51.120;3.702;2023-09-08T03:02:31;22.65;;;19.17;;
25687;SDS011;17407;51.120;3.702;2023-09-08T03:04:57;21.73;;;18.33;;
25687;SDS011;17407;51.120;3.702;2023-09-08T03:07:23;22.33;;;16.23;;
25687;SDS011;17407;51.120;3.702;2023-09-08T03:09:48;20.35;;;15.68;;
25687;SDS011;17407;51.120;3.702;2023-09-08T03:12:14;19.65;;;15.98;;
25687;SDS011;17407;51.120;3.702;2023-09-08T03:14:39;22.83;;;17.00;;
25687;SDS011;17407;51.120;3.702;2023-09-08T03:17:05;17.90;;;15.45;;
25687;SDS011;17407;51.120;3.702;2023-09-08T03:19:31;20.27;;;17.75;;
25687;SDS011;17407;51.120;3.702;2023-09-08T03:21:57;23.27;;;18.05;;
25687;SDS011;17407;51.120;3.702;2023-09-08T03:24:22;22.73;;;15.77;;
25687;SDS011;17407;51.120;3.702;2023-09-08T03:26:48;18.65;;;16.65;;
25687;SDS011;17407;51.120;3.702;2023-09-08T03:29:13;23.02;;;16.63;;
25687;SDS011;17407;51.120;3.702;2023-09-08T03:31:39;23.23;;;17.45;;
25687;SDS011;17407;51.120;3.702;2023-09-08T03:34:05;21.33;;;16.92;;
25687;SDS011;17407;51.120;3.702;2023-09-08T03:36:31;20.25;;;17.65;;
25687;SDS011;17407;51.120;3.702;2023-09-08T03:39:00;22.33;;;16.17;;
25687;SDS011;17407;51.120;3.702;2023-09-08T03:41:26;23.38;;;16.80;;
25687;SDS011;17407;51.120;3.702;2023-09-08T03:43:52;21.30;;;16.92;;
25687;SDS011;17407;51.120;3.702;2023-09-08T03:46:17;27.45;;;18.38;;
25687;SDS011;17407;51.120;3.702;2023-09-08T03:48:43;26.38;;;17.25;;
25687;SDS011;17407;51.120;3.702;2023-09-08T03:51:09;19.63;;;17.15;;
25687;SDS011;17407;51.120;3.702;2023-09-08T03:53:34;17.85;;;15.95;;
25687;SDS011;17407;51.120;3.702;2023-09-08T03:56:00;16.92;;;13.38;;
25687;SDS011;17407;51.120;3.702;2023-09-08T03:58:26;16.13;;;14.43;;
25687;SDS011;17407;51.120;3.702;2023-09-08T04:00:51;18.80;;;14.48;;
25687;SDS011;17407;51.120;3.702;2023-09-08T04:03:17;19.40;;;14.75;;
25687;SDS011;17407;51.120;3.702;2023-09-08T04:05:43;18.67;;;16.75;;
25687;SDS011;17407;51.120;3.702;2023-09-08T04:08:08;21.90;;;16.48;;
25687;SDS011;17407;51.120;3.702;2023-09-08T04:10:34;17.85;;;14.75;;
25687;SDS011;17407;51.120;3.702;2023-09-08T04:13:00;17.50;;;15.48;;
25687;SDS011;17407;51.120;3.702;2023-09-08T04:15:25;17.77;;;15.02;;
25687;SDS011;17407;51.120;3.702;2023-09-08T04:17:51;19.27;;;16.48;;
25687;SDS011;17407;51.120;3.702;2023-09-08T04:20:17;19.10;;;15.20;;
25687;SDS011;17407;51.120;3.702;2023-09-08T04:22:43;18.58;;;15.18;;
25687;SDS011;17407;51.120;3.702;2023-09-08T04:25:09;16.10;;;14.38;;
25687;SDS011;17407;51.120;3.702;2023-09-08T04:27:35;18.48;;;15.45;;
25687;SDS011;17407;51.120;3.702;2023-09-08T04:30:02;17.83;;;15.52;;
25687;SDS011;17407;51.120;3.702;2023-09-08T04:32:29;18.95;;;14.95;;
25687;SDS011;17407;51.120;3.702;2023-09-08T04:34:54;19.15;;;15.27;;
25687;SDS011;17407;51.120;3.702;2023-09-08T04:37:20;16.60;;;14.55;;
25687;SDS011;17407;51.120;3.702;2023-09-08T04:39:46;15.27;;;13.00;;
25687;SDS011;17407;51.120;3.702;2023-09-08T04:42:12;17.45;;;14.32;;
25687;SDS011;17407;51.120;3.702;2023-09-08T04:44:38;18.65;;;14.98;;
25687;SDS011;17407;51.120;3.702;2023-09-08T04:47:04;21.42;;;15.25;;
25687;SDS011;17407;51.120;3.702;2023-09-08T04:49:30;26.45;;;14.20;;
25687;SDS011;17407;51.120;3.702;2023-09-08T04:51:56;26.30;;;16.40;;
25687;SDS011;17407;51.120;3.702;2023-09-08T04:54:21;32.55;;;19.63;;
25687;SDS011;17407;51.120;3.702;2023-09-08T04:56:50;18.17;;;15.48;;
25687;SDS011;17407;51.120;3.702;2023-09-08T04:59:16;17.98;;;15.32;;
25687;SDS011;17407;51.120;3.702;2023-09-08T05:01:42;22.13;;;16.58;;
25687;SDS011;17407;51.120;3.702;2023-09-08T05:04:09;24.83;;;17.10;;
25687;SDS011;17407;51.120;3.702;2023-09-08T05:06:35;23.52;;;16.77;;
25687;SDS011;17407;51.120;3.702;2023-09-08T05:09:00;22.50;;;16.75;;
25687;SDS011;17407;51.120;3.702;2023-09-08T05:11:26;23.00;;;17.33;;
25687;SDS011;17407;51.120;3.702;2023-09-08T05:13:52;20.00;;;16.83;;
25687;SDS011;17407;51.120;3.702;2023-09-08T05:16:18;24.73;;;18.45;;
25687;SDS011;17407;51.120;3.702;2023-09-08T05:18:50;20.08;;;16.67;;
25687;SDS011;17407;51.120;3.702;2023-09-08T05:21:16;20.65;;;16.33;;
25687;SDS011;17407;51.120;3.702;2023-09-08T05:23:42;19.30;;;16.17;;
25687;SDS011;17407;51.120;3.702;2023-09-08T05:26:08;19.85;;;16.92;;
25687;SDS011;17407;51.120;3.702;2023-09-08T05:28:33;21.05;;;17.17;;
25687;SDS011;17407;51.120;3.702;2023-09-08T05:30:59;21.55;;;16.63;;
25687;SDS011;17407;51.120;3.702;2023-09-08T05:33:25;21.50;;;17.60;;
25687;SDS011;17407;51.120;3.702;2023-09-08T05:35:50;19.75;;;17.65;;
25687;SDS011;17407;51.120;3.702;2023-09-08T05:38:16;18.60;;;16.60;;
25687;SDS011;17407;51.120;3.702;2023-09-08T05:40:42;20.00;;;17.67;;
25687;SDS011;17407;51.120;3.702;2023-09-08T05:43:08;19.30;;;16.25;;
25687;SDS011;17407;51.120;3.702;2023-09-08T05:45:34;20.95;;;17.05;;
25687;SDS011;17407;51.120;3.702;2023-09-08T05:47:59;20.10;;;17.05;;
25687;SDS011;17407;51.120;3.702;2023-09-08T05:50:26;22.25;;;17.13;;
25687;SDS011;17407;51.120;3.702;2023-09-08T05:52:52;21.08;;;16.98;;
25687;SDS011;17407;51.120;3.702;2023-09-08T05:55:17;22.48;;;17.05;;
25687;SDS011;17407;51.120;3.702;2023-09-08T05:57:43;18.98;;;16.98;;
25687;SDS011;17407;51.120;3.702;2023-09-08T06:00:09;22.27;;;16.52;;
25687;SDS011;17407;51.120;3.702;2023-09-08T06:02:35;18.27;;;15.82;;
25687;SDS011;17407;51.120;3.702;2023-09-08T06:05:01;21.15;;;16.27;;
25687;SDS011;17407;51.120;3.702;2023-09-08T06:07:26;21.42;;;15.48;;
25687;SDS011;17407;51.120;3.702;2023-09-08T06:09:53;20.75;;;16.85;;
25687;SDS011;17407;51.120;3.702;2023-09-08T06:12:18;22.58;;;16.80;;
25687;SDS011;17407;51.120;3.702;2023-09-08T06:14:44;21.65;;;15.25;;
25687;SDS011;17407;51.120;3.702;2023-09-08T06:17:09;20.58;;;17.45;;
25687;SDS011;17407;51.120;3.702;2023-09-08T06:19:35;17.30;;;15.60;;
25687;SDS011;17407;51.120;3.702;2023-09-08T06:22:01;19.48;;;15.50;;
25687;SDS011;17407;51.120;3.702;2023-09-08T06:24:27;17.73;;;15.27;;
25687;SDS011;17407;51.120;3.702;2023-09-08T06:26:53;19.05;;;14.80;;
25687;SDS011;17407;51.120;3.702;2023-09-08T06:29:18;22.67;;;14.90;;
25687;SDS011;17407;51.120;3.702;2023-09-08T06:31:44;16.05;;;14.35;;
25687;SDS011;17407;51.120;3.702;2023-09-08T06:34:10;17.63;;;13.60;;
25687;SDS011;17407;51.120;3.702;2023-09-08T06:36:35;17.40;;;14.30;;
25687;SDS011;17407;51.120;3.702;2023-09-08T06:39:01;15.48;;;13.57;;
25687;SDS011;17407;51.120;3.702;2023-09-08T06:41:27;16.63;;;12.75;;
25687;SDS011;17407;51.120;3.702;2023-09-08T06:43:53;20.15;;;15.63;;
25687;SDS011;17407;51.120;3.702;2023-09-08T06:46:19;20.77;;;16.90;;
25687;SDS011;17407;51.120;3.702;2023-09-08T06:48:45;25.13;;;17.88;;
25687;SDS011;17407;51.120;3.702;2023-09-08T06:51:10;27.30;;;18.83;;
25687;SDS011;17407;51.120;3.702;2023-09-08T06:53:39;24.90;;;18.67;;
25687;SDS011;17407;51.120;3.702;2023-09-08T06:56:05;21.70;;;19.40;;
25687;SDS011;17407;51.120;3.702;2023-09-08T06:58:30;30.98;;;22.63;;
25687;SDS011;17407;51.120;3.702;2023-09-08T07:00:56;28.70;;;20.25;;
25687;SDS011;17407;51.120;3.702;2023-09-08T07:03:22;28.40;;;21.67;;
25687;SDS011;17407;51.120;3.702;2023-09-08T07:05:48;25.02;;;19.65;;
25687;SDS011;17407;51.120;3.702;2023-09-08T07:08:14;24.30;;;19.15;;
25687;SDS011;17407;51.120;3.702;2023-09-08T07:10:40;23.40;;;20.02;;
25687;SDS011;17407;51.120;3.702;2023-09-08T07:13:05;25.52;;;20.08;;
25687;SDS011;17407;51.120;3.702;2023-09-08T07:15:31;32.97;;;23.13;;
25687;SDS011;17407;51.120;3.702;2023-09-08T07:17:57;26.83;;;22.42;;
25687;SDS011;17407;51.120;3.702;2023-09-08T07:20:22;26.90;;;20.55;;
25687;SDS011;17407;51.120;3.702;2023-09-08T07:22:48;26.90;;;20.92;;
25687;SDS011;17407;51.120;3.702;2023-09-08T07:25:14;22.65;;;17.13;;
25687;SDS011;17407;51.120;3.702;2023-09-08T07:27:40;25.80;;;17.55;;
25687;SDS011;17407;51.120;3.702;2023-09-08T07:30:05;23.67;;;16.58;;
25687;SDS011;17407;51.120;3.702;2023-09-08T07:32:31;22.10;;;15.38;;
25687;SDS011;17407;51.120;3.702;2023-09-08T07:34:57;19.10;;;15.00;;
25687;SDS011;17407;51.120;3.702;2023-09-08T07:37:23;21.35;;;15.27;;
25687;SDS011;17407;51.120;3.702;2023-09-08T07:39:50;15.75;;;13.15;;
25687;SDS011;17407;51.120;3.702;2023-09-08T07:42:16;18.05;;;13.32;;
25687;SDS011;17407;51.120;3.702;2023-09-08T07:44:42;16.10;;;10.95;;
25687;SDS011;17407;51.120;3.702;2023-09-08T07:47:07;17.38;;;11.80;;
25687;SDS011;17407;51.120;3.702;2023-09-08T07:49:33;16.33;;;12.32;;
25687;SDS011;17407;51.120;3.702;2023-09-08T07:52:00;13.68;;;11.75;;
25687;SDS011;17407;51.120;3.702;2023-09-08T07:54:25;13.20;;;11.63;;
25687;SDS011;17407;51.120;3.702;2023-09-08T07:56:51;15.93;;;11.40;;
25687;SDS011;17407;51.120;3.702;2023-09-08T07:59:17;13.68;;;11.88;;
25687;SDS011;17407;51.120;3.702;2023-09-08T08:01:42;14.57;;;11.43;;
25687;SDS011;17407;51.120;3.702;2023-09-08T08:04:08;14.52;;;10.48;;
25687;SDS011;17407;51.120;3.702;2023-09-08T08:06:34;12.85;;;11.10;;
25687;SDS011;17407;51.120;3.702;2023-09-08T08:09:00;14.43;;;11.38;;
25687;SDS011;17407;51.120;3.702;2023-09-08T08:11:26;14.93;;;11.02;;
25687;SDS011;17407;51.120;3.702;2023-09-08T08:13:53;12.40;;;9.25;;
25687;SDS011;17407;51.120;3.702;2023-09-08T08:16:18;14.40;;;11.57;;
25687;SDS011;17407;51.120;3.702;2023-09-08T08:18:46;14.57;;;10.52;;
25687;SDS011;17407;51.120;3.702;2023-09-08T08:21:12;14.52;;;10.93;;
25687;SDS011;17407;51.120;3.702;2023-09-08T08:23:38;13.48;;;9.95;;
25687;SDS011;17407;51.120;3.702;2023-09-08T08:26:03;10.68;;;9.10;;
25687;SDS011;17407;51.120;3.702;2023-09-08T08:28:29;14.32;;;9.40;;
25687;SDS011;17407;51.120;3.702;2023-09-08T08:30:54;11.95;;;9.63;;
25687;SDS011;17407;51.120;3.702;2023-09-08T08:33:21;10.23;;;8.90;;
25687;SDS011;17407;51.120;3.702;2023-09-08T08:35:50;13.68;;;9.85;;
25687;SDS011;17407;51.120;3.702;2023-09-08T08:38:17;13.68;;;9.98;;
25687;SDS011;17407;51.120;3.702;2023-09-08T08:40:42;9.63;;;8.60;;
25687;SDS011;17407;51.120;3.702;2023-09-08T08:43:08;12.18;;;8.68;;
25687;SDS011;17407;51.120;3.702;2023-09-08T08:45:34;11.65;;;9.35;;
25687;SDS011;17407;51.120;3.702;2023-09-08T08:48:01;13.52;;;8.20;;
25687;SDS011;17407;51.120;3.702;2023-09-08T08:50:27;10.15;;;9.18;;
25687;SDS011;17407;51.120;3.702;2023-09-08T08:52:54;15.15;;;9.00;;
25687;SDS011;17407;51.120;3.702;2023-09-08T08:55:20;13.13;;;8.15;;
25687;SDS011;17407;51.120;3.702;2023-09-08T08:57:45;9.90;;;8.98;;
25687;SDS011;17407;51.120;3.702;2023-09-08T09:00:11;12.93;;;8.73;;
25687;SDS011;17407;51.120;3.702;2023-09-08T09:02:41;10.25;;;7.72;;
25687;SDS011;17407;51.120;3.702;2023-09-08T09:05:11;9.40;;;8.35;;
25687;SDS011;17407;51.120;3.702;2023-09-08T09:07:38;9.57;;;7.93;;
25687;SDS011;17407;51.120;3.702;2023-09-08T09:10:06;11.50;;;8.27;;
25687;SDS011;17407;51.120;3.702;2023-09-08T09:12:33;10.57;;;7.40;;
25687;SDS011;17407;51.120;3.702;2023-09-08T09:14:59;13.90;;;7.88;;
25687;SDS011;17407;51.120;3.702;2023-09-08T09:17:25;13.73;;;8.30;;
25687;SDS011;17407;51.120;3.702;2023-09-08T09:19:51;11.93;;;7.45;;
25687;SDS011;17407;51.120;3.702;2023-09-08T09:22:36;7.88;;;6.95;;
25687;SDS011;17407;51.120;3.702;2023-09-08T09:25:02;12.30;;;7.20;;
25687;SDS011;17407;51.120;3.702;2023-09-08T09:27:32;12.02;;;6.88;;
25687;SDS011;17407;51.120;3.702;2023-09-08T09:30:00;11.45;;;8.02;;
25687;SDS011;17407;51.120;3.702;2023-09-08T09:32:26;10.40;;;6.93;;
25687;SDS011;17407;51.120;3.702;2023-09-08T09:34:54;7.88;;;7.05;;
25687;SDS011;17407;51.120;3.702;2023-09-08T09:37:23;9.52;;;7.35;;
25687;SDS011;17407;51.120;3.702;2023-09-08T09:39:49;12.05;;;7.82;;
25687;SDS011;17407;51.120;3.702;2023-09-08T09:42:16;13.55;;;6.90;;
25687;SDS011;17407;51.120;3.702;2023-09-08T09:44:42;10.38;;;7.82;;
25687;SDS011;17407;51.120;3.702;2023-09-08T09:47:08;10.57;;;7.50;;
25687;SDS011;17407;51.120;3.702;2023-09-08T09:49:44;12.15;;;6.90;;
25687;SDS011;17407;51.120;3.702;2023-09-08T09:52:21;8.95;;;6.75;;
25687;SDS011;17407;51.120;3.702;2023-09-08T09:54:48;11.27;;;6.70;;
25687;SDS011;17407;51.120;3.702;2023-09-08T09:57:18;10.23;;;6.53;;
25687;SDS011;17407;51.120;3.702;2023-09-08T09:59:46;8.70;;;6.53;;
25687;SDS011;17407;51.120;3.702;2023-09-08T10:02:15;9.43;;;6.97;;
25687;SDS011;17407;51.120;3.702;2023-09-08T10:04:45;11.88;;;6.47;;
25687;SDS011;17407;51.120;3.702;2023-09-08T10:07:15;10.55;;;6.82;;
25687;SDS011;17407;51.120;3.702;2023-09-08T10:09:42;7.68;;;6.10;;
25687;SDS011;17407;51.120;3.702;2023-09-08T10:12:08;13.02;;;7.15;;
25687;SDS011;17407;51.120;3.702;2023-09-08T10:14:39;8.93;;;6.50;;
25687;SDS011;17407;51.120;3.702;2023-09-08T10:17:08;8.25;;;6.63;;
25687;SDS011;17407;51.120;3.702;2023-09-08T10:19:41;10.40;;;7.55;;
25687;SDS011;17407;51.120;3.702;2023-09-08T10:22:09;9.65;;;7.18;;
25687;SDS011;17407;51.120;3.702;2023-09-08T10:24:39;10.73;;;7.63;;
25687;SDS011;17407;51.120;3.702;2023-09-08T10:27:08;13.00;;;8.40;;
25687;SDS011;17407;51.120;3.702;2023-09-08T10:29:37;11.68;;;8.27;;
25687;SDS011;17407;51.120;3.702;2023-09-08T10:32:04;9.65;;;8.63;;
25687;SDS011;17407;51.120;3.702;2023-09-08T10:34:32;14.48;;;8.40;;
25687;SDS011;17407;51.120;3.702;2023-09-08T10:36:59;7.45;;;6.70;;
25687;SDS011;17407;51.120;3.702;2023-09-08T10:39:35;10.88;;;6.72;;
25687;SDS011;17407;51.120;3.702;2023-09-08T10:47:13;9.70;;;7.70;;
25687;SDS011;17407;51.120;3.702;2023-09-08T10:49:39;13.50;;;8.80;;
25687;SDS011;17407;51.120;3.702;2023-09-08T10:52:09;9.45;;;8.27;;
25687;SDS011;17407;51.120;3.702;2023-09-08T10:54:42;14.32;;;8.35;;
25687;SDS011;17407;51.120;3.702;2023-09-08T10:57:16;8.20;;;7.45;;
25687;SDS011;17407;51.120;3.702;2023-09-08T10:59:56;9.02;;;8.02;;
25687;SDS011;17407;51.120;3.702;2023-09-08T11:02:37;11.63;;;7.60;;
25687;SDS011;17407;51.120;3.702;2023-09-08T11:05:13;12.40;;;7.82;;
25687;SDS011;17407;51.120;3.702;2023-09-08T11:07:41;12.98;;;7.93;;
25687;SDS011;17407;51.120;3.702;2023-09-08T11:10:08;9.77;;;7.60;;
25687;SDS011;17407;51.120;3.702;2023-09-08T11:12:35;9.27;;;8.10;;
25687;SDS011;17407;51.120;3.702;2023-09-08T11:15:01;12.43;;;7.35;;
25687;SDS011;17407;51.120;3.702;2023-09-08T11:17:30;10.25;;;7.55;;
25687;SDS011;17407;51.120;3.702;2023-09-08T11:19:56;8.73;;;7.13;;
25687;SDS011;17407;51.120;3.702;2023-09-08T11:22:23;9.25;;;7.22;;
25687;SDS011;17407;51.120;3.702;2023-09-08T11:24:50;6.88;;;5.95;;
25687;SDS011;17407;51.120;3.702;2023-09-08T11:27:17;7.50;;;6.07;;
25687;SDS011;17407;51.120;3.702;2023-09-08T11:29:44;8.65;;;5.13;;
25687;SDS011;17407;51.120;3.702;2023-09-08T11:32:10;9.40;;;5.78;;
25687;SDS011;17407;51.120;3.702;2023-09-08T11:34:36;6.22;;;5.43;;
25687;SDS011;17407;51.120;3.702;2023-09-08T11:37:12;7.30;;;5.50;;
25687;SDS011;17407;51.120;3.702;2023-09-08T11:39:42;7.63;;;5.85;;
25687;SDS011;17407;51.120;3.702;2023-09-08T11:42:09;9.48;;;6.55;;
25687;SDS011;17407;51.120;3.702;2023-09-08T11:44:37;6.28;;;5.70;;
25687;SDS011;17407;51.120;3.702;2023-09-08T11:47:04;10.98;;;6.20;;
25687;SDS011;17407;51.120;3.702;2023-09-08T11:52:07;8.70;;;5.68;;
25687;SDS011;17407;51.120;3.702;2023-09-08T11:54:33;7.18;;;5.70;;
25687;SDS011;17407;51.120;3.702;2023-09-08T11:57:00;6.90;;;6.18;;
25687;SDS011;17407;51.120;3.702;2023-09-08T11:59:28;6.65;;;5.47;;
25687;SDS011;17407;51.120;3.702;2023-09-08T12:01:59;14.63;;;5.75;;
25687;SDS011;17407;51.120;3.702;2023-09-08T12:04:25;8.90;;;7.25;;
25687;SDS011;17407;51.120;3.702;2023-09-08T12:06:52;11.25;;;7.30;;
25687;SDS011;17407;51.120;3.702;2023-09-08T12:09:20;6.63;;;6.03;;
25687;SDS011;17407;51.120;3.702;2023-09-08T12:11:46;8.02;;;6.30;;
25687;SDS011;17407;51.120;3.702;2023-09-08T12:14:13;7.07;;;5.22;;
25687;SDS011;17407;51.120;3.702;2023-09-08T12:16:40;7.82;;;5.68;;
25687;SDS011;17407;51.120;3.702;2023-09-08T12:19:07;7.15;;;5.90;;
25687;SDS011;17407;51.120;3.702;2023-09-08T12:21:53;7.97;;;6.20;;
25687;SDS011;17407;51.120;3.702;2023-09-08T12:24:45;7.22;;;5.68;;
25687;SDS011;17407;51.120;3.702;2023-09-08T12:27:19;11.68;;;5.55;;
25687;SDS011;17407;51.120;3.702;2023-09-08T12:30:00;10.65;;;5.43;;
25687;SDS011;17407;51.120;3.702;2023-09-08T12:32:28;7.22;;;5.72;;
25687;SDS011;17407;51.120;3.702;2023-09-08T12:34:55;8.20;;;5.97;;
25687;SDS011;17407;51.120;3.702;2023-09-08T12:37:22;6.43;;;5.18;;
25687;SDS011;17407;51.120;3.702;2023-09-08T12:39:48;8.70;;;6.20;;
25687;SDS011;17407;51.120;3.702;2023-09-08T12:42:14;10.63;;;5.82;;
25687;SDS011;17407;51.120;3.702;2023-09-08T12:44:40;8.35;;;5.95;;
25687;SDS011;17407;51.120;3.702;2023-09-08T12:47:06;12.02;;;6.60;;
25687;SDS011;17407;51.120;3.702;2023-09-08T12:49:32;7.18;;;6.13;;
25687;SDS011;17407;51.120;3.702;2023-09-08T12:51:57;11.40;;;6.10;;
25687;SDS011;17407;51.120;3.702;2023-09-08T12:54:24;7.68;;;5.65;;
25687;SDS011;17407;51.120;3.702;2023-09-08T12:56:49;6.47;;;5.80;;
25687;SDS011;17407;51.120;3.702;2023-09-08T12:59:16;7.05;;;6.03;;
25687;SDS011;17407;51.120;3.702;2023-09-08T13:01:42;10.48;;;7.10;;
25687;SDS011;17407;51.120;3.702;2023-09-08T13:04:07;6.97;;;6.28;;
25687;SDS011;17407;51.120;3.702;2023-09-08T13:06:33;18.00;;;7.07;;
25687;SDS011;17407;51.120;3.702;2023-09-08T13:08:59;7.32;;;6.28;;
25687;SDS011;17407;51.120;3.702;2023-09-08T13:11:25;7.40;;;6.70;;
25687;SDS011;17407;51.120;3.702;2023-09-08T13:13:51;10.75;;;6.90;;
25687;SDS011;17407;51.120;3.702;2023-09-08T13:16:17;8.65;;;6.70;;
25687;SDS011;17407;51.120;3.702;2023-09-08T13:18:42;10.43;;;7.00;;
25687;SDS011;17407;51.120;3.702;2023-09-08T13:21:10;9.10;;;7.18;;
25687;SDS011;17407;51.120;3.702;2023-09-08T13:23:36;7.82;;;6.22;;
25687;SDS011;17407;51.120;3.702;2023-09-08T13:26:02;7.63;;;6.55;;
25687;SDS011;17407;51.120;3.702;2023-09-08T13:28:27;7.85;;;6.47;;
25687;SDS011;17407;51.120;3.702;2023-09-08T13:30:53;10.70;;;6.05;;
25687;SDS011;17407;51.120;3.702;2023-09-08T13:33:18;8.10;;;6.28;;
25687;SDS011;17407;51.120;3.702;2023-09-08T13:35:45;7.15;;;6.00;;
25687;SDS011;17407;51.120;3.702;2023-09-08T13:38:10;9.63;;;5.80;;
25687;SDS011;17407;51.120;3.702;2023-09-08T13:40:36;9.48;;;5.60;;
25687;SDS011;17407;51.120;3.702;2023-09-08T13:43:03;6.38;;;5.70;;
25687;SDS011;17407;51.120;3.702;2023-09-08T13:45:29;7.45;;;5.63;;
25687;SDS011;17407;51.120;3.702;2023-09-08T13:47:55;7.25;;;6.05;;
25687;SDS011;17407;51.120;3.702;2023-09-08T13:50:20;9.95;;;6.13;;
25687;SDS011;17407;51.120;3.702;2023-09-08T13:52:48;8.50;;;6.10;;
25687;SDS011;17407;51.120;3.702;2023-09-08T13:55:14;7.32;;;5.68;;
25687;SDS011;17407;51.120;3.702;2023-09-08T13:57:40;7.53;;;6.25;;
25687;SDS011;17407;51.120;3.702;2023-09-08T14:00:05;8.20;;;6.07;;
25687;SDS011;17407;51.120;3.702;2023-09-08T14:02:33;7.43;;;6.60;;
25687;SDS011;17407;51.120;3.702;2023-09-08T14:04:59;8.52;;;6.15;;
25687;SDS011;17407;51.120;3.702;2023-09-08T14:07:25;7.25;;;5.88;;
25687;SDS011;17407;51.120;3.702;2023-09-08T14:09:50;7.90;;;6.38;;
25687;SDS011;17407;51.120;3.702;2023-09-08T14:12:16;8.43;;;6.07;;
25687;SDS011;17407;51.120;3.702;2023-09-08T14:14:42;6.60;;;5.90;;
25687;SDS011;17407;51.120;3.702;2023-09-08T14:17:07;11.68;;;7.13;;
25687;SDS011;17407;51.120;3.702;2023-09-08T14:19:33;8.38;;;6.05;;
25687;SDS011;17407;51.120;3.702;2023-09-08T14:21:59;7.90;;;6.15;;
25687;SDS011;17407;51.120;3.702;2023-09-08T14:24:24;6.68;;;5.97;;
25687;SDS011;17407;51.120;3.702;2023-09-08T14:26:50;7.20;;;6.18;;
25687;SDS011;17407;51.120;3.702;2023-09-08T14:29:17;7.50;;;5.80;;
25687;SDS011;17407;51.120;3.702;2023-09-08T14:31:42;8.20;;;6.55;;
25687;SDS011;17407;51.120;3.702;2023-09-08T14:34:08;8.90;;;6.25;;
25687;SDS011;17407;51.120;3.702;2023-09-08T14:36:34;7.93;;;6.13;;